sensor_id;sensor_type;location;lat;lon;timestamp;temperature;humidity
42715;DHT22;28351;51.480;5.706;2023-05-07T00:01:58;14.20;99.90
42715;DHT22;28351;51.480;5.706;2023-05-07T00:04:27;14.30;99.90
42715;DHT22;28351;51.480;5.706;2023-05-07T00:06:53;14.30;99.90
42715;DHT22;28351;51.480;5.706;2023-05-07T00:09:19;14.20;99.90
42715;DHT22;28351;51.480;5.706;2023-05-07T00:11:44;14.20;99.90
42715;DHT22;28351;51.480;5.706;2023-05-07T00:14:10;14.30;99.90
42715;DHT22;28351;51.480;5.706;2023-05-07T00:16:36;14.30;99.90
42715;DHT22;28351;51.480;5.706;2023-05-07T00:19:01;14.30;99.90
42715;DHT22;28351;51.480;5.706;2023-05-07T00:21:27;14.30;99.90
42715;DHT22;28351;51.480;5.706;2023-05-07T00:23:53;14.40;99.90
42715;DHT22;28351;51.480;5.706;2023-05-07T00:26:19;14.40;99.90
42715;DHT22;28351;51.480;5.706;2023-05-07T00:28:44;14.40;99.90
42715;DHT22;28351;51.480;5.706;2023-05-07T00:31:10;14.40;99.90
42715;DHT22;28351;51.480;5.706;2023-05-07T00:33:36;14.40;99.90
42715;DHT22;28351;51.480;5.706;2023-05-07T00:36:01;14.30;99.90
42715;DHT22;28351;51.480;5.706;2023-05-07T00:38:27;14.30;99.90
42715;DHT22;28351;51.480;5.706;2023-05-07T00:40:52;14.30;99.90
42715;DHT22;28351;51.480;5.706;2023-05-07T00:43:18;14.20;99.90
42715;DHT22;28351;51.480;5.706;2023-05-07T00:45:44;14.20;99.90
42715;DHT22;28351;51.480;5.706;2023-05-07T00:48:09;14.20;99.90
42715;DHT22;28351;51.480;5.706;2023-05-07T00:50:35;14.10;99.90
42715;DHT22;28351;51.480;5.706;2023-05-07T00:53:01;14.10;99.90
42715;DHT22;28351;51.480;5.706;2023-05-07T00:55:27;14.00;99.90
42715;DHT22;28351;51.480;5.706;2023-05-07T00:57:52;14.00;99.90
42715;DHT22;28351;51.480;5.706;2023-05-07T01:00:19;14.00;99.90
42715;DHT22;28351;51.480;5.706;2023-05-07T01:02:45;13.90;99.90
42715;DHT22;28351;51.480;5.706;2023-05-07T01:05:13;13.90;99.90
42715;DHT22;28351;51.480;5.706;2023-05-07T01:07:40;13.90;99.90
42715;DHT22;28351;51.480;5.706;2023-05-07T01:10:08;13.90;99.90
42715;DHT22;28351;51.480;5.706;2023-05-07T01:12:38;13.90;99.90
42715;DHT22;28351;51.480;5.706;2023-05-07T01:15:05;13.90;99.90
42715;DHT22;28351;51.480;5.706;2023-05-07T01:17:40;13.90;99.90
42715;DHT22;28351;51.480;5.706;2023-05-07T01:20:06;13.90;99.90
42715;DHT22;28351;51.480;5.706;2023-05-07T01:22:34;14.00;99.90
42715;DHT22;28351;51.480;5.706;2023-05-07T01:25:00;14.00;99.90
42715;DHT22;28351;51.480;5.706;2023-05-07T01:27:27;14.10;99.90
42715;DHT22;28351;51.480;5.706;2023-05-07T01:29:53;14.10;99.90
42715;DHT22;28351;51.480;5.706;2023-05-07T01:32:32;14.10;99.90
42715;DHT22;28351;51.480;5.706;2023-05-07T01:35:00;14.10;99.90
42715;DHT22;28351;51.480;5.706;2023-05-07T01:37:29;14.10;99.90
42715;DHT22;28351;51.480;5.706;2023-05-07T01:39:55;14.10;99.90
42715;DHT22;28351;51.480;5.706;2023-05-07T01:42:21;14.00;99.90
42715;DHT22;28351;51.480;5.706;2023-05-07T01:44:47;14.00;99.90
42715;DHT22;28351;51.480;5.706;2023-05-07T01:47:14;14.10;99.90
42715;DHT22;28351;51.480;5.706;2023-05-07T01:49:40;14.00;99.90
42715;DHT22;28351;51.480;5.706;2023-05-07T01:52:06;14.00;99.90
42715;DHT22;28351;51.480;5.706;2023-05-07T01:54:32;14.00;99.90
42715;DHT22;28351;51.480;5.706;2023-05-07T01:56:57;14.00;99.90
42715;DHT22;28351;51.480;5.706;2023-05-07T01:59:23;14.00;99.90
42715;DHT22;28351;51.480;5.706;2023-05-07T02:01:49;14.00;99.90
42715;DHT22;28351;51.480;5.706;2023-05-07T02:04:14;13.90;99.90
42715;DHT22;28351;51.480;5.706;2023-05-07T02:06:40;14.00;99.90
42715;DHT22;28351;51.480;5.706;2023-05-07T02:09:06;13.90;99.90
42715;DHT22;28351;51.480;5.706;2023-05-07T02:11:31;13.90;99.90
42715;DHT22;28351;51.480;5.706;2023-05-07T02:13:57;13.90;99.90
42715;DHT22;28351;51.480;5.706;2023-05-07T02:16:22;13.90;99.90
42715;DHT22;28351;51.480;5.706;2023-05-07T02:18:49;13.90;99.90
42715;DHT22;28351;51.480;5.706;2023-05-07T02:21:15;13.90;99.90
42715;DHT22;28351;51.480;5.706;2023-05-07T02:23:40;13.90;99.90
42715;DHT22;28351;51.480;5.706;2023-05-07T02:26:06;13.90;99.90
42715;DHT22;28351;51.480;5.706;2023-05-07T02:28:31;13.90;99.90
42715;DHT22;28351;51.480;5.706;2023-05-07T02:30:57;13.90;99.90
42715;DHT22;28351;51.480;5.706;2023-05-07T02:33:26;13.90;99.90
42715;DHT22;28351;51.480;5.706;2023-05-07T02:35:51;13.80;99.90
42715;DHT22;28351;51.480;5.706;2023-05-07T02:38:17;13.90;99.90
42715;DHT22;28351;51.480;5.706;2023-05-07T02:40:43;13.80;99.90
42715;DHT22;28351;51.480;5.706;2023-05-07T02:43:09;13.90;99.90
42715;DHT22;28351;51.480;5.706;2023-05-07T02:45:35;13.80;99.90
42715;DHT22;28351;51.480;5.706;2023-05-07T02:48:03;13.80;99.90
42715;DHT22;28351;51.480;5.706;2023-05-07T02:50:29;13.80;99.90
42715;DHT22;28351;51.480;5.706;2023-05-07T02:52:55;13.80;99.90
42715;DHT22;28351;51.480;5.706;2023-05-07T02:55:23;13.80;99.90
42715;DHT22;28351;51.480;5.706;2023-05-07T02:57:48;13.80;99.90
42715;DHT22;28351;51.480;5.706;2023-05-07T03:00:16;13.80;99.90
42715;DHT22;28351;51.480;5.706;2023-05-07T03:02:42;13.80;99.90
42715;DHT22;28351;51.480;5.706;2023-05-07T03:05:07;13.80;99.90
42715;DHT22;28351;51.480;5.706;2023-05-07T03:07:35;13.90;99.90
42715;DHT22;28351;51.480;5.706;2023-05-07T03:10:00;13.80;99.90
42715;DHT22;28351;51.480;5.706;2023-05-07T03:12:26;13.80;99.90
42715;DHT22;28351;51.480;5.706;2023-05-07T03:14:52;13.80;99.90
42715;DHT22;28351;51.480;5.706;2023-05-07T03:17:17;13.80;99.90
42715;DHT22;28351;51.480;5.706;2023-05-07T03:19:45;13.80;99.90
42715;DHT22;28351;51.480;5.706;2023-05-07T03:22:11;13.80;99.90
42715;DHT22;28351;51.480;5.706;2023-05-07T03:24:37;13.80;99.90
42715;DHT22;28351;51.480;5.706;2023-05-07T03:27:02;13.80;99.90
42715;DHT22;28351;51.480;5.706;2023-05-07T03:29:28;13.80;99.90
42715;DHT22;28351;51.480;5.706;2023-05-07T03:31:54;13.70;99.90
42715;DHT22;28351;51.480;5.706;2023-05-07T03:34:19;13.70;99.90
42715;DHT22;28351;51.480;5.706;2023-05-07T03:36:52;13.70;99.90
42715;DHT22;28351;51.480;5.706;2023-05-07T03:39:18;13.70;99.90
42715;DHT22;28351;51.480;5.706;2023-05-07T03:41:44;13.70;99.90
42715;DHT22;28351;51.480;5.706;2023-05-07T03:44:15;13.70;99.90
42715;DHT22;28351;51.480;5.706;2023-05-07T03:46:41;13.70;99.90
42715;DHT22;28351;51.480;5.706;2023-05-07T03:49:12;13.70;99.90
42715;DHT22;28351;51.480;5.706;2023-05-07T03:51:37;13.70;99.90
42715;DHT22;28351;51.480;5.706;2023-05-07T03:54:12;13.70;99.90
42715;DHT22;28351;51.480;5.706;2023-05-07T03:56:38;13.70;99.90
42715;DHT22;28351;51.480;5.706;2023-05-07T03:59:12;13.70;99.90
42715;DHT22;28351;51.480;5.706;2023-05-07T04:02:03;13.60;99.90
42715;DHT22;28351;51.480;5.706;2023-05-07T04:04:32;13.70;99.90
42715;DHT22;28351;51.480;5.706;2023-05-07T04:07:08;13.70;99.90
42715;DHT22;28351;51.480;5.706;2023-05-07T04:09:34;13.70;99.90
42715;DHT22;28351;51.480;5.706;2023-05-07T04:11:59;13.70;99.90
42715;DHT22;28351;51.480;5.706;2023-05-07T04:14:26;13.70;99.90
42715;DHT22;28351;51.480;5.706;2023-05-07T04:16:54;13.70;99.90
42715;DHT22;28351;51.480;5.706;2023-05-07T04:19:20;13.70;99.90
42715;DHT22;28351;51.480;5.706;2023-05-07T04:21:45;13.70;99.90
42715;DHT22;28351;51.480;5.706;2023-05-07T04:24:11;13.80;99.90
42715;DHT22;28351;51.480;5.706;2023-05-07T04:26:36;13.80;99.90
42715;DHT22;28351;51.480;5.706;2023-05-07T04:29:02;13.80;99.90
42715;DHT22;28351;51.480;5.706;2023-05-07T04:31:28;13.90;99.90
42715;DHT22;28351;51.480;5.706;2023-05-07T04:33:54;13.90;99.90
42715;DHT22;28351;51.480;5.706;2023-05-07T04:36:19;13.90;99.90
42715;DHT22;28351;51.480;5.706;2023-05-07T04:38:45;14.00;99.90
42715;DHT22;28351;51.480;5.706;2023-05-07T04:41:12;14.00;99.90
42715;DHT22;28351;51.480;5.706;2023-05-07T04:43:38;14.00;99.90
42715;DHT22;28351;51.480;5.706;2023-05-07T04:46:04;14.10;99.90
42715;DHT22;28351;51.480;5.706;2023-05-07T04:48:30;14.10;99.90
42715;DHT22;28351;51.480;5.706;2023-05-07T04:50:55;14.20;99.90
42715;DHT22;28351;51.480;5.706;2023-05-07T04:53:21;14.20;99.90
42715;DHT22;28351;51.480;5.706;2023-05-07T04:55:55;14.30;99.90
42715;DHT22;28351;51.480;5.706;2023-05-07T04:58:21;14.30;99.90
42715;DHT22;28351;51.480;5.706;2023-05-07T05:00:47;14.40;99.90
42715;DHT22;28351;51.480;5.706;2023-05-07T05:03:12;14.40;99.90
42715;DHT22;28351;51.480;5.706;2023-05-07T05:05:39;14.40;99.90
42715;DHT22;28351;51.480;5.706;2023-05-07T05:08:06;14.50;99.90
42715;DHT22;28351;51.480;5.706;2023-05-07T05:10:31;14.50;99.90
42715;DHT22;28351;51.480;5.706;2023-05-07T05:12:57;14.60;99.90
42715;DHT22;28351;51.480;5.706;2023-05-07T05:15:24;14.60;99.90
42715;DHT22;28351;51.480;5.706;2023-05-07T05:17:49;14.60;99.90
42715;DHT22;28351;51.480;5.706;2023-05-07T05:20:15;14.60;99.90
42715;DHT22;28351;51.480;5.706;2023-05-07T05:22:41;14.60;99.90
42715;DHT22;28351;51.480;5.706;2023-05-07T05:28:16;14.60;99.90
42715;DHT22;28351;51.480;5.706;2023-05-07T05:30:42;14.70;99.90
42715;DHT22;28351;51.480;5.706;2023-05-07T05:33:07;14.70;99.90
42715;DHT22;28351;51.480;5.706;2023-05-07T05:35:42;14.80;99.90
42715;DHT22;28351;51.480;5.706;2023-05-07T05:38:08;14.80;99.90
42715;DHT22;28351;51.480;5.706;2023-05-07T05:40:34;14.90;99.90
42715;DHT22;28351;51.480;5.706;2023-05-07T05:42:59;15.00;99.90
42715;DHT22;28351;51.480;5.706;2023-05-07T05:45:25;15.10;99.90
42715;DHT22;28351;51.480;5.706;2023-05-07T05:47:51;15.10;99.90
42715;DHT22;28351;51.480;5.706;2023-05-07T05:50:16;15.20;99.90
42715;DHT22;28351;51.480;5.706;2023-05-07T05:52:42;15.30;99.90
42715;DHT22;28351;51.480;5.706;2023-05-07T05:55:11;15.30;99.90
42715;DHT22;28351;51.480;5.706;2023-05-07T05:57:36;15.40;99.90
42715;DHT22;28351;51.480;5.706;2023-05-07T06:00:02;15.50;99.90
42715;DHT22;28351;51.480;5.706;2023-05-07T06:02:29;15.50;99.90
42715;DHT22;28351;51.480;5.706;2023-05-07T06:04:55;15.50;99.90
42715;DHT22;28351;51.480;5.706;2023-05-07T06:07:20;15.60;99.90
42715;DHT22;28351;51.480;5.706;2023-05-07T06:09:46;15.60;99.90
42715;DHT22;28351;51.480;5.706;2023-05-07T06:12:12;15.70;99.90
42715;DHT22;28351;51.480;5.706;2023-05-07T06:14:37;15.70;99.90
42715;DHT22;28351;51.480;5.706;2023-05-07T06:17:03;15.80;99.90
42715;DHT22;28351;51.480;5.706;2023-05-07T06:19:29;15.90;99.90
42715;DHT22;28351;51.480;5.706;2023-05-07T06:21:54;16.00;99.90
42715;DHT22;28351;51.480;5.706;2023-05-07T06:24:22;16.10;99.90
42715;DHT22;28351;51.480;5.706;2023-05-07T06:26:47;16.10;99.90
42715;DHT22;28351;51.480;5.706;2023-05-07T06:29:16;16.30;99.90
42715;DHT22;28351;51.480;5.706;2023-05-07T06:32:09;16.50;99.90
42715;DHT22;28351;51.480;5.706;2023-05-07T06:34:35;16.60;99.90
42715;DHT22;28351;51.480;5.706;2023-05-07T06:37:00;16.70;99.90
42715;DHT22;28351;51.480;5.706;2023-05-07T06:39:26;16.90;99.90
42715;DHT22;28351;51.480;5.706;2023-05-07T06:41:52;17.00;99.90
42715;DHT22;28351;51.480;5.706;2023-05-07T06:44:17;17.00;99.90
42715;DHT22;28351;51.480;5.706;2023-05-07T06:46:48;17.10;99.90
42715;DHT22;28351;51.480;5.706;2023-05-07T06:49:14;17.10;99.90
42715;DHT22;28351;51.480;5.706;2023-05-07T06:51:40;17.10;99.90
42715;DHT22;28351;51.480;5.706;2023-05-07T06:54:05;17.10;99.90
42715;DHT22;28351;51.480;5.706;2023-05-07T06:56:32;17.10;99.90
42715;DHT22;28351;51.480;5.706;2023-05-07T06:58:57;17.20;99.90
42715;DHT22;28351;51.480;5.706;2023-05-07T07:01:23;17.30;99.90
42715;DHT22;28351;51.480;5.706;2023-05-07T07:03:48;17.40;99.90
42715;DHT22;28351;51.480;5.706;2023-05-07T07:06:14;17.40;99.90
42715;DHT22;28351;51.480;5.706;2023-05-07T07:08:40;17.40;99.90
42715;DHT22;28351;51.480;5.706;2023-05-07T07:11:06;17.50;99.90
42715;DHT22;28351;51.480;5.706;2023-05-07T07:13:31;17.70;99.90
42715;DHT22;28351;51.480;5.706;2023-05-07T07:15:57;17.60;99.90
42715;DHT22;28351;51.480;5.706;2023-05-07T07:18:23;17.70;99.90
42715;DHT22;28351;51.480;5.706;2023-05-07T07:20:48;17.70;99.90
42715;DHT22;28351;51.480;5.706;2023-05-07T07:23:14;17.80;99.90
42715;DHT22;28351;51.480;5.706;2023-05-07T07:25:40;17.80;99.90
42715;DHT22;28351;51.480;5.706;2023-05-07T07:28:06;17.90;99.90
42715;DHT22;28351;51.480;5.706;2023-05-07T07:30:32;17.80;99.90
42715;DHT22;28351;51.480;5.706;2023-05-07T07:32:57;17.90;99.90
42715;DHT22;28351;51.480;5.706;2023-05-07T07:35:31;17.80;99.90
42715;DHT22;28351;51.480;5.706;2023-05-07T07:37:57;17.80;99.90
42715;DHT22;28351;51.480;5.706;2023-05-07T07:40:23;17.80;99.90
42715;DHT22;28351;51.480;5.706;2023-05-07T07:42:48;17.80;99.90
42715;DHT22;28351;51.480;5.706;2023-05-07T07:45:14;17.80;99.90
42715;DHT22;28351;51.480;5.706;2023-05-07T07:47:40;17.80;99.90
42715;DHT22;28351;51.480;5.706;2023-05-07T07:50:07;17.90;99.90
42715;DHT22;28351;51.480;5.706;2023-05-07T07:52:33;18.00;99.90
42715;DHT22;28351;51.480;5.706;2023-05-07T07:54:59;18.00;99.90
42715;DHT22;28351;51.480;5.706;2023-05-07T07:57:24;18.20;99.90
42715;DHT22;28351;51.480;5.706;2023-05-07T07:59:50;18.10;99.90
42715;DHT22;28351;51.480;5.706;2023-05-07T08:02:16;18.30;99.90
42715;DHT22;28351;51.480;5.706;2023-05-07T08:04:42;18.40;99.90
42715;DHT22;28351;51.480;5.706;2023-05-07T08:07:09;18.50;99.90
42715;DHT22;28351;51.480;5.706;2023-05-07T08:09:34;18.70;99.90
42715;DHT22;28351;51.480;5.706;2023-05-07T08:12:00;18.90;99.90
42715;DHT22;28351;51.480;5.706;2023-05-07T08:14:26;19.00;99.90
42715;DHT22;28351;51.480;5.706;2023-05-07T08:16:53;19.20;99.90
42715;DHT22;28351;51.480;5.706;2023-05-07T08:19:19;19.40;99.90
42715;DHT22;28351;51.480;5.706;2023-05-07T08:21:45;19.40;99.90
42715;DHT22;28351;51.480;5.706;2023-05-07T08:24:13;19.50;99.90
42715;DHT22;28351;51.480;5.706;2023-05-07T08:26:39;19.40;99.90
42715;DHT22;28351;51.480;5.706;2023-05-07T08:29:05;19.40;99.90
42715;DHT22;28351;51.480;5.706;2023-05-07T08:31:31;19.50;99.90
42715;DHT22;28351;51.480;5.706;2023-05-07T08:33:57;19.50;99.90
42715;DHT22;28351;51.480;5.706;2023-05-07T08:36:26;19.50;99.90
42715;DHT22;28351;51.480;5.706;2023-05-07T08:38:52;19.60;99.90
42715;DHT22;28351;51.480;5.706;2023-05-07T08:41:18;19.60;99.90
42715;DHT22;28351;51.480;5.706;2023-05-07T08:43:48;19.70;99.90
42715;DHT22;28351;51.480;5.706;2023-05-07T08:46:18;19.70;99.90
42715;DHT22;28351;51.480;5.706;2023-05-07T08:48:51;19.80;99.90
42715;DHT22;28351;51.480;5.706;2023-05-07T08:51:19;20.00;99.90
42715;DHT22;28351;51.480;5.706;2023-05-07T08:53:46;20.10;99.90
42715;DHT22;28351;51.480;5.706;2023-05-07T08:56:14;20.30;99.90
42715;DHT22;28351;51.480;5.706;2023-05-07T08:58:42;20.40;99.90
42715;DHT22;28351;51.480;5.706;2023-05-07T09:01:10;20.70;99.90
42715;DHT22;28351;51.480;5.706;2023-05-07T09:03:38;20.90;99.90
42715;DHT22;28351;51.480;5.706;2023-05-07T09:06:04;21.00;99.90
42715;DHT22;28351;51.480;5.706;2023-05-07T09:08:32;21.10;99.90
42715;DHT22;28351;51.480;5.706;2023-05-07T09:10:58;21.20;99.90
42715;DHT22;28351;51.480;5.706;2023-05-07T09:13:24;21.20;99.90
42715;DHT22;28351;51.480;5.706;2023-05-07T09:15:50;21.40;99.90
42715;DHT22;28351;51.480;5.706;2023-05-07T09:18:15;21.50;99.90
42715;DHT22;28351;51.480;5.706;2023-05-07T09:20:41;21.40;99.90
42715;DHT22;28351;51.480;5.706;2023-05-07T09:23:08;21.40;99.90
42715;DHT22;28351;51.480;5.706;2023-05-07T09:25:34;21.60;99.90
42715;DHT22;28351;51.480;5.706;2023-05-07T09:28:01;21.70;99.90
42715;DHT22;28351;51.480;5.706;2023-05-07T09:30:31;21.80;99.90
42715;DHT22;28351;51.480;5.706;2023-05-07T09:33:04;21.50;99.90
42715;DHT22;28351;51.480;5.706;2023-05-07T09:35:30;21.10;99.90
42715;DHT22;28351;51.480;5.706;2023-05-07T09:37:58;21.20;99.90
42715;DHT22;28351;51.480;5.706;2023-05-07T09:40:26;21.30;99.90
42715;DHT22;28351;51.480;5.706;2023-05-07T09:42:51;21.60;99.90
42715;DHT22;28351;51.480;5.706;2023-05-07T09:45:26;21.80;99.90
42715;DHT22;28351;51.480;5.706;2023-05-07T09:47:55;21.80;99.90
42715;DHT22;28351;51.480;5.706;2023-05-07T09:50:26;21.70;99.90
42715;DHT22;28351;51.480;5.706;2023-05-07T09:52:54;21.80;99.90
42715;DHT22;28351;51.480;5.706;2023-05-07T09:55:20;21.80;99.90
42715;DHT22;28351;51.480;5.706;2023-05-07T09:57:46;21.90;99.90
42715;DHT22;28351;51.480;5.706;2023-05-07T10:00:12;22.10;99.90
42715;DHT22;28351;51.480;5.706;2023-05-07T10:02:39;22.20;99.90
42715;DHT22;28351;51.480;5.706;2023-05-07T10:05:12;22.10;99.90
42715;DHT22;28351;51.480;5.706;2023-05-07T10:07:39;22.10;99.90
42715;DHT22;28351;51.480;5.706;2023-05-07T10:10:06;22.30;99.90
42715;DHT22;28351;51.480;5.706;2023-05-07T10:12:32;22.50;99.90
42715;DHT22;28351;51.480;5.706;2023-05-07T10:15:05;22.60;99.90
42715;DHT22;28351;51.480;5.706;2023-05-07T10:17:32;22.80;99.90
42715;DHT22;28351;51.480;5.706;2023-05-07T10:19:58;22.80;99.90
42715;DHT22;28351;51.480;5.706;2023-05-07T10:22:28;23.10;99.90
42715;DHT22;28351;51.480;5.706;2023-05-07T10:24:56;23.00;99.90
42715;DHT22;28351;51.480;5.706;2023-05-07T10:27:25;23.00;99.90
42715;DHT22;28351;51.480;5.706;2023-05-07T10:32:38;23.40;99.90
42715;DHT22;28351;51.480;5.706;2023-05-07T10:35:09;23.70;99.90
42715;DHT22;28351;51.480;5.706;2023-05-07T10:37:35;23.80;99.90
42715;DHT22;28351;51.480;5.706;2023-05-07T10:40:02;24.20;99.90
42715;DHT22;28351;51.480;5.706;2023-05-07T10:42:28;24.20;99.90
42715;DHT22;28351;51.480;5.706;2023-05-07T10:44:53;24.20;99.90
42715;DHT22;28351;51.480;5.706;2023-05-07T10:47:22;24.20;99.90
42715;DHT22;28351;51.480;5.706;2023-05-07T10:52:17;24.40;99.90
42715;DHT22;28351;51.480;5.706;2023-05-07T10:54:43;24.60;99.90
42715;DHT22;28351;51.480;5.706;2023-05-07T10:59:57;25.00;99.90
42715;DHT22;28351;51.480;5.706;2023-05-07T11:02:23;25.10;99.90
42715;DHT22;28351;51.480;5.706;2023-05-07T11:05:18;25.20;99.90
42715;DHT22;28351;51.480;5.706;2023-05-07T11:07:54;25.70;99.90
42715;DHT22;28351;51.480;5.706;2023-05-07T11:10:20;26.00;99.90
42715;DHT22;28351;51.480;5.706;2023-05-07T11:12:47;25.80;99.50
42715;DHT22;28351;51.480;5.706;2023-05-07T11:15:13;25.70;99.90
42715;DHT22;28351;51.480;5.706;2023-05-07T11:17:57;25.70;99.80
42715;DHT22;28351;51.480;5.706;2023-05-07T11:26:09;24.90;99.80
42715;DHT22;28351;51.480;5.706;2023-05-07T11:28:40;24.70;99.90
42715;DHT22;28351;51.480;5.706;2023-05-07T11:31:10;24.50;99.90
42715;DHT22;28351;51.480;5.706;2023-05-07T11:33:37;24.20;99.90
42715;DHT22;28351;51.480;5.706;2023-05-07T11:36:04;24.00;99.90
42715;DHT22;28351;51.480;5.706;2023-05-07T11:38:30;23.80;99.90
42715;DHT22;28351;51.480;5.706;2023-05-07T11:41:00;23.70;99.90
42715;DHT22;28351;51.480;5.706;2023-05-07T11:43:31;23.70;99.90
42715;DHT22;28351;51.480;5.706;2023-05-07T11:46:10;23.70;99.90
42715;DHT22;28351;51.480;5.706;2023-05-07T11:48:43;23.70;99.90
42715;DHT22;28351;51.480;5.706;2023-05-07T11:51:09;24.00;99.90
42715;DHT22;28351;51.480;5.706;2023-05-07T11:53:38;24.10;99.90
42715;DHT22;28351;51.480;5.706;2023-05-07T11:56:14;24.00;99.20
42715;DHT22;28351;51.480;5.706;2023-05-07T11:58:42;23.70;99.90
42715;DHT22;28351;51.480;5.706;2023-05-07T12:01:10;23.50;99.90
42715;DHT22;28351;51.480;5.706;2023-05-07T12:03:37;23.30;99.90
42715;DHT22;28351;51.480;5.706;2023-05-07T12:06:05;23.10;99.90
42715;DHT22;28351;51.480;5.706;2023-05-07T12:08:36;23.10;99.90
42715;DHT22;28351;51.480;5.706;2023-05-07T12:11:03;23.10;99.90
42715;DHT22;28351;51.480;5.706;2023-05-07T12:13:34;23.30;99.90
42715;DHT22;28351;51.480;5.706;2023-05-07T12:16:00;23.20;99.90
42715;DHT22;28351;51.480;5.706;2023-05-07T12:18:28;23.30;99.90
42715;DHT22;28351;51.480;5.706;2023-05-07T12:20:55;23.30;99.90
42715;DHT22;28351;51.480;5.706;2023-05-07T12:23:22;23.50;99.90
42715;DHT22;28351;51.480;5.706;2023-05-07T12:25:48;23.60;99.90
42715;DHT22;28351;51.480;5.706;2023-05-07T12:28:17;23.50;99.90
42715;DHT22;28351;51.480;5.706;2023-05-07T12:30:47;23.50;99.90
42715;DHT22;28351;51.480;5.706;2023-05-07T12:33:24;23.20;99.90
42715;DHT22;28351;51.480;5.706;2023-05-07T12:35:50;23.00;99.90
42715;DHT22;28351;51.480;5.706;2023-05-07T12:38:18;22.90;99.90
42715;DHT22;28351;51.480;5.706;2023-05-07T12:40:49;22.70;99.90
42715;DHT22;28351;51.480;5.706;2023-05-07T12:45:43;22.40;99.90
42715;DHT22;28351;51.480;5.706;2023-05-07T12:48:12;22.30;99.90
42715;DHT22;28351;51.480;5.706;2023-05-07T12:50:38;22.10;99.90
42715;DHT22;28351;51.480;5.706;2023-05-07T12:53:15;21.90;99.90
42715;DHT22;28351;51.480;5.706;2023-05-07T12:55:47;21.70;99.90
42715;DHT22;28351;51.480;5.706;2023-05-07T12:58:23;21.60;99.90
42715;DHT22;28351;51.480;5.706;2023-05-07T13:00:50;21.50;99.90
42715;DHT22;28351;51.480;5.706;2023-05-07T13:03:30;21.30;99.90
42715;DHT22;28351;51.480;5.706;2023-05-07T13:05:58;21.10;99.90
42715;DHT22;28351;51.480;5.706;2023-05-07T13:08:36;20.90;99.90
42715;DHT22;28351;51.480;5.706;2023-05-07T13:11:04;20.30;99.90
42715;DHT22;28351;51.480;5.706;2023-05-07T13:13:35;19.80;99.90
42715;DHT22;28351;51.480;5.706;2023-05-07T13:16:02;19.40;99.90
42715;DHT22;28351;51.480;5.706;2023-05-07T13:18:29;19.00;99.90
42715;DHT22;28351;51.480;5.706;2023-05-07T13:20:55;18.70;99.90
42715;DHT22;28351;51.480;5.706;2023-05-07T13:23:21;18.40;99.90
42715;DHT22;28351;51.480;5.706;2023-05-07T13:25:48;18.20;99.90
42715;DHT22;28351;51.480;5.706;2023-05-07T13:28:13;17.90;99.90
42715;DHT22;28351;51.480;5.706;2023-05-07T13:30:39;17.40;99.90
42715;DHT22;28351;51.480;5.706;2023-05-07T13:33:08;17.00;99.90
42715;DHT22;28351;51.480;5.706;2023-05-07T13:35:34;16.60;99.90
42715;DHT22;28351;51.480;5.706;2023-05-07T13:37:59;16.40;99.90
42715;DHT22;28351;51.480;5.706;2023-05-07T13:40:25;16.30;99.90
42715;DHT22;28351;51.480;5.706;2023-05-07T13:42:51;16.20;99.90
42715;DHT22;28351;51.480;5.706;2023-05-07T13:45:18;16.20;99.90
42715;DHT22;28351;51.480;5.706;2023-05-07T13:47:43;16.10;99.90
42715;DHT22;28351;51.480;5.706;2023-05-07T13:50:12;16.00;99.90
42715;DHT22;28351;51.480;5.706;2023-05-07T13:52:42;16.10;99.90
42715;DHT22;28351;51.480;5.706;2023-05-07T13:55:09;16.10;99.90
42715;DHT22;28351;51.480;5.706;2023-05-07T13:57:36;16.00;99.90
42715;DHT22;28351;51.480;5.706;2023-05-07T14:00:02;16.10;99.90
42715;DHT22;28351;51.480;5.706;2023-05-07T14:02:30;16.20;99.90
42715;DHT22;28351;51.480;5.706;2023-05-07T14:04:56;16.30;99.90
42715;DHT22;28351;51.480;5.706;2023-05-07T14:07:21;16.30;99.90
42715;DHT22;28351;51.480;5.706;2023-05-07T14:09:47;16.30;99.90
42715;DHT22;28351;51.480;5.706;2023-05-07T14:12:12;16.30;99.90
42715;DHT22;28351;51.480;5.706;2023-05-07T14:14:38;16.20;99.90
42715;DHT22;28351;51.480;5.706;2023-05-07T14:17:05;16.30;99.90
42715;DHT22;28351;51.480;5.706;2023-05-07T14:19:30;16.20;99.90
42715;DHT22;28351;51.480;5.706;2023-05-07T14:21:56;16.20;99.90
42715;DHT22;28351;51.480;5.706;2023-05-07T14:24:21;16.10;99.90
42715;DHT22;28351;51.480;5.706;2023-05-07T14:26:47;16.20;99.90
42715;DHT22;28351;51.480;5.706;2023-05-07T14:29:12;16.10;99.90
42715;DHT22;28351;51.480;5.706;2023-05-07T14:31:38;16.10;99.90
42715;DHT22;28351;51.480;5.706;2023-05-07T14:34:05;16.10;99.90
42715;DHT22;28351;51.480;5.706;2023-05-07T14:36:30;16.10;99.90
42715;DHT22;28351;51.480;5.706;2023-05-07T14:38:57;16.20;99.90
42715;DHT22;28351;51.480;5.706;2023-05-07T14:41:24;16.30;99.90
42715;DHT22;28351;51.480;5.706;2023-05-07T14:43:50;16.50;99.90
42715;DHT22;28351;51.480;5.706;2023-05-07T14:46:17;16.60;99.90
42715;DHT22;28351;51.480;5.706;2023-05-07T14:48:46;16.60;99.90
42715;DHT22;28351;51.480;5.706;2023-05-07T14:51:12;16.80;99.90
42715;DHT22;28351;51.480;5.706;2023-05-07T14:53:38;17.00;99.90
42715;DHT22;28351;51.480;5.706;2023-05-07T14:56:04;17.20;99.90
42715;DHT22;28351;51.480;5.706;2023-05-07T14:58:30;17.30;99.90
42715;DHT22;28351;51.480;5.706;2023-05-07T15:00:56;17.70;99.90
42715;DHT22;28351;51.480;5.706;2023-05-07T15:03:22;17.90;99.90
42715;DHT22;28351;51.480;5.706;2023-05-07T15:05:48;18.20;99.90
42715;DHT22;28351;51.480;5.706;2023-05-07T15:08:16;18.40;99.90
42715;DHT22;28351;51.480;5.706;2023-05-07T15:10:42;18.50;99.90
42715;DHT22;28351;51.480;5.706;2023-05-07T15:13:08;18.70;99.90
42715;DHT22;28351;51.480;5.706;2023-05-07T15:15:34;18.70;99.90
42715;DHT22;28351;51.480;5.706;2023-05-07T15:18:00;18.80;99.90
42715;DHT22;28351;51.480;5.706;2023-05-07T15:20:26;18.70;99.90
42715;DHT22;28351;51.480;5.706;2023-05-07T15:22:52;18.50;99.90
42715;DHT22;28351;51.480;5.706;2023-05-07T15:25:17;18.40;99.90
42715;DHT22;28351;51.480;5.706;2023-05-07T15:27:43;18.30;99.90
42715;DHT22;28351;51.480;5.706;2023-05-07T15:30:09;18.30;99.90
42715;DHT22;28351;51.480;5.706;2023-05-07T15:32:36;18.30;99.90
42715;DHT22;28351;51.480;5.706;2023-05-07T15:35:05;18.50;99.90
42715;DHT22;28351;51.480;5.706;2023-05-07T15:37:32;18.30;99.90
42715;DHT22;28351;51.480;5.706;2023-05-07T15:39:57;18.50;99.90
42715;DHT22;28351;51.480;5.706;2023-05-07T15:42:23;18.70;99.90
42715;DHT22;28351;51.480;5.706;2023-05-07T15:44:49;19.00;99.90
42715;DHT22;28351;51.480;5.706;2023-05-07T15:47:15;19.30;99.90
42715;DHT22;28351;51.480;5.706;2023-05-07T15:49:41;19.50;99.90